Time;durP1;ratioP1;P1;durP2;ratioP2;P2;SDS_P1;SDS_P2;PMS_P1;PMS_P2;Temp;Humidity;BMP_temperature;BMP_pressure;BME280_temperature;BME280_humidity;BME280_pressure;Samples;Min_cycle;Max_cycle;Signal;HPM_P1;HPM_P2
2022/07/03 00:01:07;;;;;;;2.75;1.00;;;23.70;46.30;;;;;;7365809;19;20086;-75
2022/07/03 00:03:35;;;;;;;3.30;1.08;;;23.70;45.90;;;;;;7367893;19;20077;-75
2022/07/03 00:06:04;;;;;;;4.38;0.82;;;23.70;46.20;;;;;;7369036;19;20077;-75
2022/07/03 00:08:33;;;;;;;3.80;0.93;;;23.70;46.40;;;;;;7389573;19;20066;-76
2022/07/03 00:11:05;;;;;;;1.70;1.08;;;23.80;46.60;;;;;;7379233;19;20653;-75
2022/07/03 00:13:34;;;;;;;2.70;0.90;;;23.80;46.70;;;;;;7379865;19;20082;-75
2022/07/03 00:16:02;;;;;;;2.22;0.93;;;23.80;46.60;;;;;;7379378;19;20018;-75
2022/07/03 00:18:31;;;;;;;2.58;1.05;;;23.80;46.40;;;;;;7379378;19;20090;-75
2022/07/03 00:21:03;;;;;;;1.67;0.85;;;23.80;47.30;;;;;;7401869;19;20113;-75
2022/07/03 00:23:40;;;;;;;2.15;0.98;;;23.80;46.30;;;;;;7380681;19;20078;-75
2022/07/03 00:26:15;;;;;;;8.00;1.30;;;23.90;46.60;;;;;;7380430;19;20014;-75
2022/07/03 00:28:45;;;;;;;2.05;0.77;;;23.80;46.80;;;;;;7379476;19;20479;-75
2022/07/03 00:31:14;;;;;;;1.40;0.70;;;23.90;46.80;;;;;;7378175;19;20032;-75
2022/07/03 00:33:46;;;;;;;5.50;1.55;;;23.90;47.00;;;;;;7378600;19;20082;-75
2022/07/03 00:36:15;;;;;;;1.75;0.82;;;23.80;47.00;;;;;;7378029;19;20014;-75
2022/07/03 00:38:44;;;;;;;1.50;0.80;;;23.80;47.20;;;;;;7398932;19;20011;-75
2022/07/03 00:41:27;;;;;;;2.58;1.15;;;23.80;47.20;;;;;;7378427;19;20082;-75
2022/07/03 00:43:56;;;;;;;3.80;0.90;;;23.70;47.20;;;;;;7378419;19;20487;-75
2022/07/03 00:46:27;;;;;;;2.40;1.08;;;23.60;47.20;;;;;;7378750;19;20671;-75
2022/07/03 00:48:58;;;;;;;4.15;1.15;;;23.60;47.50;;;;;;7379763;19;20018;-75
2022/07/03 00:51:29;;;;;;;3.38;0.90;;;23.60;47.40;;;;;;7379875;19;20407;-76
2022/07/03 00:53:59;;;;;;;2.65;0.90;;;23.60;47.50;;;;;;7399317;19;20585;-75
2022/07/03 00:56:33;;;;;;;6.63;1.17;;;23.60;47.00;;;;;;7376949;19;20031;-75
2022/07/03 00:59:03;;;;;;;6.72;1.00;;;23.60;47.40;;;;;;7377906;19;20014;-75
2022/07/03 01:01:34;;;;;;;3.38;0.90;;;23.50;47.50;;;;;;7377691;19;20006;-75
2022/07/03 01:04:09;;;;;;;;;;;23.50;47.70;;;;;;7378030;19;20014;-76
2022/07/03 01:06:47;;;;;;;3.55;0.90;;;23.50;47.60;;;;;;7378365;19;19919;-75
2022/07/03 01:09:20;;;;;;;1.60;0.90;;;23.40;47.50;;;;;;7377063;19;20020;-75
2022/07/03 01:12:00;;;;;;;2.78;1.02;;;23.40;47.50;;;;;;7400338;19;20121;-75
2022/07/03 01:14:40;;;;;;;3.13;1.17;;;23.40;47.50;;;;;;7373937;19;20081;-74
2022/07/03 01:17:19;;;;;;;4.68;1.38;;;23.40;47.60;;;;;;7377195;19;20014;-74
2022/07/03 01:19:52;;;;;;;2.00;0.98;;;23.30;47.90;;;;;;7376592;19;20542;-75
2022/07/03 01:22:32;;;;;;;6.70;1.15;;;23.30;48.10;;;;;;7370351;19;20006;-75
2022/07/03 01:25:16;;;;;;;2.38;1.10;;;23.30;48.10;;;;;;7369079;19;20400;-75
2022/07/03 01:28:00;;;;;;;5.28;1.40;;;23.20;48.50;;;;;;7370384;19;20082;-75
2022/07/03 01:30:30;;;;;;;4.47;1.30;;;23.20;48.60;;;;;;7371754;19;20018;-74
2022/07/03 01:33:04;;;;;;;3.42;1.58;;;23.20;48.60;;;;;;7388284;19;20021;-75
2022/07/03 01:35:36;;;;;;;4.18;1.30;;;23.10;48.60;;;;;;7370376;19;20073;-75
2022/07/03 01:38:08;;;;;;;4.20;1.30;;;23.10;48.50;;;;;;7371220;19;20021;-74
2022/07/03 01:40:37;;;;;;;;;;;23.00;48.60;;;;;;7371350;19;20018;-75
2022/07/03 01:43:10;;;;;;;3.65;1.40;;;23.00;48.70;;;;;;7369455;19;20614;-74
2022/07/03 01:45:43;;;;;;;6.07;1.70;;;22.90;48.60;;;;;;7368865;19;20035;-75
2022/07/03 01:48:14;;;;;;;2.65;1.20;;;22.80;48.70;;;;;;7368962;19;20011;-75
2022/07/03 01:50:44;;;;;;;4.30;1.83;;;22.80;49.00;;;;;;7391070;19;20045;-74
2022/07/03 01:53:15;;;;;;;2.37;1.60;;;22.70;49.10;;;;;;7368304;19;20010;-75
2022/07/03 01:55:44;;;;;;;2.83;1.20;;;22.60;49.30;;;;;;7369425;19;20018;-75
2022/07/03 01:58:16;;;;;;;2.28;1.40;;;22.50;49.30;;;;;;7369528;19;20027;-75
2022/07/03 02:00:48;;;;;;;;;;;22.50;49.30;;;;;;7366465;19;20014;-74
2022/07/03 02:03:26;;;;;;;5.07;2.05;;;22.50;49.40;;;;;;7368499;19;19923;-75
2022/07/03 02:06:02;;;;;;;3.88;1.70;;;22.40;49.50;;;;;;7391747;19;20771;-75
2022/07/03 02:08:38;;;;;;;4.93;1.40;;;22.30;49.80;;;;;;7369434;19;20017;-74
2022/07/03 02:11:13;;;;;;;4.10;2.20;;;22.30;50.10;;;;;;7368475;19;20014;-74
2022/07/03 02:13:54;;;;;;;4.38;2.30;;;22.30;50.20;;;;;;7369302;19;20078;-75
2022/07/03 02:16:26;;;;;;;3.38;2.25;;;22.20;51.00;;;;;;7367933;19;20019;-74
2022/07/03 02:19:07;;;;;;;4.78;2.25;;;22.10;50.20;;;;;;7367672;19;20097;-75
2022/07/03 02:21:37;;;;;;;2.72;2.10;;;22.10;50.50;;;;;;7368413;19;20097;-74
2022/07/03 02:24:18;;;;;;;6.13;2.40;;;22.10;50.80;;;;;;7370022;19;20022;-76
2022/07/03 02:26:55;;;;;;;5.05;2.22;;;22.00;50.90;;;;;;7387122;19;20015;-75
2022/07/03 02:29:34;;;;;;;3.03;1.95;;;22.00;51.00;;;;;;7367749;19;20108;-75
2022/07/03 02:32:06;;;;;;;5.30;2.00;;;22.00;51.00;;;;;;7365909;19;20019;-75
2022/07/03 02:34:36;;;;;;;2.28;1.70;;;22.00;50.70;;;;;;7368793;19;20098;-75
2022/07/03 02:37:13;;;;;;;5.82;1.90;;;22.00;50.40;;;;;;7366019;19;20010;-75
2022/07/03 02:39:48;;;;;;;2.83;1.80;;;22.10;50.20;;;;;;7367217;19;20014;-75
2022/07/03 02:42:27;;;;;;;4.30;1.80;;;22.00;50.20;;;;;;7366797;19;20048;-75
2022/07/03 02:45:02;;;;;;;3.97;2.40;;;21.90;50.60;;;;;;7388669;19;20689;-75
2022/07/03 02:47:39;;;;;;;7.55;2.50;;;21.80;50.90;;;;;;7366366;19;20599;-75
2022/07/03 02:50:11;;;;;;;3.72;2.58;;;21.80;51.20;;;;;;7367067;19;20022;-75
2022/07/03 02:52:49;;;;;;;3.90;2.20;;;21.70;51.30;;;;;;7366981;19;20010;-75
2022/07/03 02:55:39;;;;;;;6.75;2.50;;;21.70;51.30;;;;;;7368800;19;20336;-75
2022/07/03 02:58:29;;;;;;;4.22;2.38;;;21.70;51.40;;;;;;7368534;19;20078;-75
2022/07/03 03:01:10;;;;;;;3.60;2.00;;;21.70;51.30;;;;;;7368022;19;20452;-75
2022/07/03 03:03:41;;;;;;;3.17;2.28;;;21.70;51.30;;;;;;7364528;19;20021;-75
2022/07/03 03:06:16;;;;;;;8.63;2.55;;;21.60;51.30;;;;;;7368270;19;20099;-75
2022/07/03 03:08:52;;;;;;;4.90;2.38;;;21.60;51.40;;;;;;7388605;19;20569;-75
2022/07/03 03:11:27;;;;;;;4.15;2.20;;;21.50;51.50;;;;;;7367606;19;20063;-75
2022/07/03 03:13:59;;;;;;;3.88;2.22;;;21.50;51.60;;;;;;7365492;19;20015;-75
2022/07/03 03:16:31;;;;;;;4.55;2.10;;;21.50;51.70;;;;;;7366726;19;20021;-75
2022/07/03 03:19:00;;;;;;;3.38;2.08;;;21.50;51.70;;;;;;7367024;19;20989;-75
2022/07/03 03:21:34;;;;;;;3.05;2.17;;;21.60;51.60;;;;;;7366380;19;20007;-75
2022/07/03 03:24:04;;;;;;;5.55;2.30;;;21.60;51.50;;;;;;7377511;19;20070;-76
2022/07/03 03:26:33;;;;;;;4.68;2.10;;;21.60;51.30;;;;;;7387376;19;20430;-75
2022/07/03 03:29:02;;;;;;;2.25;1.80;;;21.60;51.30;;;;;;7366633;19;20018;-75
2022/07/03 03:31:35;;;;;;;2.78;1.75;;;21.60;51.00;;;;;;7366304;19;20769;-75
2022/07/03 03:34:05;;;;;;;4.72;1.88;;;21.50;51.00;;;;;;7366062;19;20027;-75
2022/07/03 03:36:35;;;;;;;5.53;1.98;;;21.50;51.10;;;;;;7367734;19;20014;-75
2022/07/03 03:39:04;;;;;;;2.17;1.70;;;21.50;50.90;;;;;;7368106;19;20094;-75
2022/07/03 03:41:33;;;;;;;2.92;1.83;;;21.50;50.90;;;;;;7385129;19;20486;-75
2022/07/03 03:44:02;;;;;;;2.67;1.60;;;21.40;50.90;;;;;;7366152;19;20085;-75
2022/07/03 03:46:33;;;;;;;2.97;1.63;;;21.40;50.90;;;;;;7366908;19;20031;-75
2022/07/03 03:49:02;;;;;;;;;;;21.40;50.90;;;;;;7367582;19;20454;-75
2022/07/03 03:51:31;;;;;;;6.38;1.77;;;21.40;51.00;;;;;;7364411;19;19933;-75
2022/07/03 03:53:59;;;;;;;5.70;2.05;;;21.40;51.10;;;;;;7387852;19;20376;-75
2022/07/03 03:56:28;;;;;;;3.60;1.70;;;21.30;51.70;;;;;;7366041;19;20452;-75
2022/07/03 03:58:57;;;;;;;5.78;1.92;;;21.30;51.30;;;;;;7365061;19;20081;-75
2022/07/03 04:01:26;;;;;;;2.60;1.80;;;21.20;51.20;;;;;;7364285;19;20026;-75
2022/07/03 04:03:59;;;;;;;4.68;2.20;;;21.30;51.40;;;;;;7366476;19;20392;-75
2022/07/03 04:06:27;;;;;;;5.22;1.73;;;21.20;51.40;;;;;;7366011;19;20017;-75
2022/07/03 04:08:56;;;;;;;4.72;2.00;;;21.20;51.40;;;;;;7388178;19;20018;-75
2022/07/03 04:11:25;;;;;;;3.33;1.67;;;21.20;51.90;;;;;;7362856;19;20620;-75
2022/07/03 04:13:54;;;;;;;4.78;2.00;;;21.20;51.30;;;;;;7363470;19;20019;-75
2022/07/03 04:16:22;;;;;;;3.80;2.17;;;21.20;51.40;;;;;;7366552;19;20074;-75
2022/07/03 04:18:51;;;;;;;2.60;1.98;;;21.20;51.40;;;;;;7364844;19;20431;-75
2022/07/03 04:21:22;;;;;;;5.03;1.88;;;21.20;51.50;;;;;;7367188;19;20089;-75
2022/07/03 04:23:51;;;;;;;5.10;2.05;;;21.20;51.70;;;;;;7387381;19;20019;-75
2022/07/03 04:26:20;;;;;;;6.32;2.20;;;21.10;51.80;;;;;;7365369;19;20086;-75
2022/07/03 04:28:49;;;;;;;6.18;2.20;;;21.20;51.80;;;;;;7365882;19;20083;-75
2022/07/03 04:31:18;;;;;;;3.50;2.25;;;21.10;51.80;;;;;;7361956;19;20006;-75
2022/07/03 04:33:46;;;;;;;3.78;1.92;;;21.10;52.00;;;;;;7363692;19;20043;-75
2022/07/03 04:36:15;;;;;;;5.07;1.95;;;21.10;52.00;;;;;;7363930;19;20015;-75
2022/07/03 04:38:47;;;;;;;4.70;2.28;;;21.10;52.00;;;;;;7386826;19;20218;-75
2022/07/03 04:41:15;;;;;;;;;;;21.10;51.90;;;;;;7365624;19;20371;-75
2022/07/03 04:43:44;;;;;;;3.70;2.10;;;21.20;52.10;;;;;;7365488;19;19931;-75
2022/07/03 04:46:13;;;;;;;7.70;2.25;;;21.20;52.10;;;;;;7365647;19;20125;-75
2022/07/03 04:48:41;;;;;;;4.35;2.22;;;21.20;52.20;;;;;;7365452;19;20026;-75
2022/07/03 04:51:10;;;;;;;6.00;2.20;;;21.20;52.30;;;;;;7361291;19;20015;-76
2022/07/03 04:53:39;;;;;;;4.05;2.35;;;21.20;52.40;;;;;;7386316;19;20574;-75
2022/07/03 04:56:10;;;;;;;6.28;3.97;;;21.20;52.40;;;;;;7368014;19;20098;-75
2022/07/03 04:58:39;;;;;;;6.30;2.40;;;21.30;52.20;;;;;;7372791;19;20018;-76
2022/07/03 05:01:08;;;;;;;8.40;2.42;;;21.30;52.80;;;;;;7369621;19;20018;-76
2022/07/03 05:03:37;;;;;;;2.97;2.10;;;21.30;52.40;;;;;;7372065;19;20019;-75
2022/07/03 05:06:06;;;;;;;3.70;2.20;;;21.30;52.50;;;;;;7370241;19;20022;-76
2022/07/03 05:08:35;;;;;;;2.35;1.70;;;21.30;52.70;;;;;;7389066;19;20021;-76
2022/07/03 05:11:03;;;;;;;3.05;1.90;;;21.20;52.60;;;;;;7372539;19;20505;-76
2022/07/03 05:13:35;;;;;;;2.92;1.67;;;21.30;52.60;;;;;;7369384;19;20035;-76
2022/07/03 05:16:03;;;;;;;;;;;21.30;52.50;;;;;;7372132;19;20356;-75
2022/07/03 05:18:32;;;;;;;4.68;1.77;;;21.30;52.50;;;;;;7372253;19;20022;-76
2022/07/03 05:21:01;;;;;;;5.72;1.88;;;21.40;52.50;;;;;;7391585;19;20102;-76
2022/07/03 05:23:29;;;;;;;3.13;1.92;;;21.30;52.60;;;;;;7372178;19;20014;-75
2022/07/03 05:25:59;;;;;;;4.43;2.00;;;21.30;52.80;;;;;;7370670;19;20422;-75
2022/07/03 05:28:28;;;;;;;6.15;2.10;;;21.30;52.90;;;;;;7370864;19;20073;-75
2022/07/03 05:30:59;;;;;;;3.80;1.63;;;21.30;53.00;;;;;;7370651;19;20014;-75
2022/07/03 05:33:28;;;;;;;;;;;21.30;52.90;;;;;;7370654;19;20019;-74
2022/07/03 05:35:57;;;;;;;4.75;1.85;;;21.40;52.90;;;;;;7391526;19;19914;-75
2022/07/03 05:41:07;;;;;;;4.20;1.60;;;21.50;52.90;;;;;;7371247;19;20451;-75
2022/07/03 05:43:36;;;;;;;3.22;1.50;;;21.50;53.00;;;;;;7370675;19;20015;-75
2022/07/03 05:46:07;;;;;;;2.45;1.58;;;21.60;53.00;;;;;;7368947;19;20053;-75
2022/07/03 05:48:36;;;;;;;;;;;21.60;53.10;;;;;;7372707;19;20027;-75
2022/07/03 05:51:05;;;;;;;2.92;1.60;;;21.70;53.10;;;;;;7373363;19;19929;-75
2022/07/03 05:53:34;;;;;;;2.60;1.52;;;21.80;53.50;;;;;;7392552;19;20086;-74
2022/07/03 05:56:02;;;;;;;2.22;1.60;;;21.80;52.90;;;;;;7370193;19;20014;-75
2022/07/03 05:58:31;;;;;;;2.95;1.50;;;21.80;52.90;;;;;;7369537;19;20324;-75
2022/07/03 06:01:00;;;;;;;3.45;1.63;;;21.40;53.60;;;;;;7369105;19;20073;-75
2022/07/03 06:03:31;;;;;;;4.55;1.50;;;21.70;53.30;;;;;;7367973;19;20014;-75
2022/07/03 06:06:01;;;;;;;;;;;21.90;53.30;;;;;;7390585;19;20031;-75
2022/07/03 06:08:30;;;;;;;3.70;1.40;;;22.00;52.50;;;;;;7371698;19;19922;-75
2022/07/03 06:10:58;;;;;;;3.70;1.38;;;22.00;52.30;;;;;;7369588;19;20011;-75
2022/07/03 06:13:27;;;;;;;2.20;1.10;;;22.00;52.20;;;;;;7369948;19;20827;-76
2022/07/03 06:15:56;;;;;;;4.75;1.15;;;22.00;52.30;;;;;;7369002;19;20018;-75
2022/07/03 06:18:25;;;;;;;2.85;1.42;;;22.00;52.50;;;;;;7371198;19;20018;-75
2022/07/03 06:20:56;;;;;;;2.38;1.65;;;22.00;52.70;;;;;;7389963;19;20010;-75
2022/07/03 06:23:25;;;;;;;2.17;1.45;;;22.00;53.20;;;;;;7368428;19;20018;-75
2022/07/03 06:25:53;;;;;;;4.13;1.65;;;22.10;52.60;;;;;;7370775;19;20015;-75
2022/07/03 06:28:22;;;;;;;5.22;1.92;;;22.10;52.80;;;;;;7373207;19;20031;-75
2022/07/03 06:30:51;;;;;;;7.18;2.20;;;22.20;52.80;;;;;;7370053;19;20039;-75
2022/07/03 06:33:21;;;;;;;3.00;2.42;;;22.10;52.70;;;;;;7369683;19;20028;-75
2022/07/03 06:35:50;;;;;;;6.60;2.58;;;22.20;52.70;;;;;;7389862;19;20489;-76
2022/07/03 06:38:22;;;;;;;5.32;2.55;;;22.10;52.90;;;;;;7367480;19;20091;-76
2022/07/03 06:40:51;;;;;;;4.05;2.70;;;22.10;53.20;;;;;;7367369;19;20428;-76
2022/07/03 06:43:20;;;;;;;4.53;3.08;;;22.20;53.30;;;;;;7370737;19;20807;-75
2022/07/03 06:45:48;;;;;;;4.25;3.13;;;22.20;53.30;;;;;;7370196;19;20078;-76
2022/07/03 06:48:17;;;;;;;5.07;3.35;;;22.00;53.20;;;;;;7370097;19;20109;-76
2022/07/03 06:50:46;;;;;;;5.72;3.40;;;22.00;53.40;;;;;;7390308;19;20022;-76
2022/07/03 06:53:15;;;;;;;7.60;3.22;;;22.00;53.40;;;;;;7369281;19;20011;-76
2022/07/03 06:55:46;;;;;;;6.43;2.88;;;22.00;53.30;;;;;;7368185;19;20022;-75
2022/07/03 06:58:16;;;;;;;;;;;22.00;53.20;;;;;;7369888;19;20055;-75
2022/07/03 07:00:45;;;;;;;8.70;2.97;;;22.00;53.50;;;;;;7369629;19;19929;-75
2022/07/03 07:03:13;;;;;;;4.43;2.70;;;22.10;53.60;;;;;;7369588;19;20027;-75
2022/07/03 07:05:42;;;;;;;5.15;2.83;;;22.00;53.30;;;;;;7393382;19;20039;-75
2022/07/03 07:08:11;;;;;;;5.95;3.00;;;22.00;53.40;;;;;;7370664;19;20015;-76
2022/07/03 07:10:40;;;;;;;5.13;2.25;;;21.80;53.60;;;;;;7373437;19;20030;-75
2022/07/03 07:13:11;;;;;;;4.47;2.30;;;21.90;53.70;;;;;;7374022;19;20493;-76
2022/07/03 07:15:39;;;;;;;;;;;22.00;53.50;;;;;;7373736;19;20014;-75
2022/07/03 07:18:08;;;;;;;5.38;2.47;;;22.20;53.80;;;;;;7373444;19;20358;-76
2022/07/03 07:20:37;;;;;;;5.25;2.42;;;22.10;53.40;;;;;;7397818;19;20089;-75
2022/07/03 07:23:06;;;;;;;3.65;2.10;;;22.20;53.40;;;;;;7377798;19;20010;-75
2022/07/03 07:25:34;;;;;;;2.97;2.17;;;22.00;53.40;;;;;;7380548;19;20085;-76
2022/07/03 07:28:03;;;;;;;5.20;2.50;;;22.10;53.50;;;;;;7380688;19;20014;-76
2022/07/03 07:30:34;;;;;;;3.55;2.13;;;22.10;53.50;;;;;;7379590;19;20079;-76
2022/07/03 07:33:03;;;;;;;;;;;22.10;53.30;;;;;;7399623;19;20450;-77
2022/07/03 07:35:31;;;;;;;4.00;1.85;;;22.20;53.30;;;;;;7417136;19;19922;-75
2022/07/03 07:38:01;;;;;;;5.43;2.20;;;22.20;53.00;;;;;;7396984;19;20019;-75
2022/07/03 07:40:29;;;;;;;6.05;2.47;;;22.20;53.00;;;;;;7395925;19;20011;-75
2022/07/03 07:42:58;;;;;;;4.65;1.98;;;22.30;53.20;;;;;;7394563;19;20011;-75
2022/07/03 07:45:27;;;;;;;3.15;1.83;;;22.40;52.90;;;;;;7396864;19;20042;-74
2022/07/03 07:47:58;;;;;;;6.47;2.08;;;22.30;52.80;;;;;;7413881;19;20020;-76
2022/07/03 07:50:27;;;;;;;;;;;22.40;52.80;;;;;;7380575;19;20054;-75
2022/07/03 07:52:56;;;;;;;5.55;1.80;;;22.60;52.80;;;;;;7370239;19;20366;-75
2022/07/03 07:55:25;;;;;;;5.18;1.70;;;22.50;52.30;;;;;;7367634;19;20089;-76
2022/07/03 07:57:54;;;;;;;4.40;1.83;;;22.60;52.10;;;;;;7371785;19;20088;-75
2022/07/03 08:00:24;;;;;;;3.72;1.42;;;22.70;52.00;;;;;;7369461;19;20318;-76
2022/07/03 08:05:40;;;;;;;2.92;1.58;;;22.70;52.00;;;;;;7368773;19;20054;-76
2022/07/03 08:08:10;;;;;;;5.40;1.90;;;22.80;52.20;;;;;;7366645;19;20015;-76
2022/07/03 08:10:41;;;;;;;3.05;1.60;;;22.70;52.20;;;;;;7368619;19;20074;-76
2022/07/03 08:13:11;;;;;;;2.45;1.30;;;22.70;52.10;;;;;;7366407;19;20035;-76
2022/07/03 08:15:40;;;;;;;2.97;1.60;;;22.70;52.50;;;;;;7363109;19;20049;-76
2022/07/03 08:18:10;;;;;;;2.10;1.20;;;22.80;52.70;;;;;;7366991;19;20015;-76
2022/07/03 08:20:41;;;;;;;3.08;1.30;;;22.80;52.30;;;;;;7386734;19;20038;-76
2022/07/03 08:23:10;;;;;;;1.92;1.20;;;22.80;51.30;;;;;;7365381;19;20006;-75
2022/07/03 08:25:39;;;;;;;5.78;1.90;;;22.70;51.20;;;;;;7367661;19;20019;-76
2022/07/03 08:28:08;;;;;;;1.20;1.15;;;22.50;51.60;;;;;;7363998;19;20074;-76
2022/07/03 08:30:37;;;;;;;4.13;1.30;;;22.70;51.40;;;;;;7370253;19;20411;-75
2022/07/03 08:33:06;;;;;;;3.83;1.42;;;22.70;51.50;;;;;;7373700;19;20113;-76
2022/07/03 08:35:34;;;;;;;2.92;1.33;;;22.70;51.50;;;;;;7391118;19;20376;-75
2022/07/03 08:38:06;;;;;;;4.50;1.50;;;22.80;51.00;;;;;;7371292;19;20010;-76
2022/07/03 08:40:35;;;;;;;3.42;1.52;;;22.50;51.50;;;;;;7370692;19;20070;-76
2022/07/03 08:43:04;;;;;;;7.05;1.63;;;22.70;51.30;;;;;;7372071;19;20480;-76
2022/07/03 08:45:35;;;;;;;6.07;1.27;;;22.80;51.20;;;;;;7373211;19;20015;-76
2022/07/03 08:48:07;;;;;;;3.05;1.40;;;22.60;51.30;;;;;;7371989;19;20014;-76
2022/07/03 08:50:37;;;;;;;3.30;1.33;;;22.60;51.60;;;;;;7393322;19;20423;-76
2022/07/03 08:53:09;;;;;;;4.05;1.40;;;22.70;51.30;;;;;;7371486;19;20410;-76
2022/07/03 08:55:37;;;;;;;4.40;2.15;;;22.70;51.60;;;;;;7370790;19;20113;-76
2022/07/03 08:58:08;;;;;;;6.75;1.83;;;22.90;51.50;;;;;;7372182;19;20090;-76
2022/07/03 09:00:37;;;;;;;3.67;1.45;;;23.10;51.30;;;;;;7371469;19;20025;-77
2022/07/03 09:03:11;;;;;;;1.80;1.10;;;23.20;51.30;;;;;;7372033;19;20082;-77
2022/07/03 09:05:41;;;;;;;6.20;1.60;;;23.20;51.40;;;;;;7392308;19;20070;-76
2022/07/03 09:08:13;;;;;;;4.45;1.20;;;23.20;51.30;;;;;;7371400;19;20029;-76
2022/07/03 09:10:42;;;;;;;2.47;1.30;;;23.30;51.30;;;;;;7371565;19;20019;-76
2022/07/03 09:13:14;;;;;;;2.78;0.90;;;23.30;51.40;;;;;;7370030;19;20030;-76
2022/07/03 09:15:44;;;;;;;2.97;1.25;;;23.20;51.30;;;;;;7367589;19;20513;-76
2022/07/03 09:18:12;;;;;;;2.95;1.23;;;23.30;51.40;;;;;;7370970;19;20018;-76
2022/07/03 09:20:44;;;;;;;4.80;1.35;;;23.20;51.30;;;;;;7391831;19;20700;-77
2022/07/03 09:23:17;;;;;;;1.98;1.10;;;23.20;50.90;;;;;;7367701;19;20320;-76
2022/07/03 09:26:01;;;;;;;1.73;1.10;;;23.30;51.20;;;;;;7369574;19;20113;-76
2022/07/03 09:28:50;;;;;;;2.08;1.05;;;23.10;51.20;;;;;;7369618;19;20028;-77
2022/07/03 09:31:20;;;;;;;2.45;1.15;;;23.10;51.20;;;;;;7369477;19;20126;-76
2022/07/03 09:34:00;;;;;;;2.30;1.02;;;23.10;50.70;;;;;;7370698;19;20014;-77
2022/07/03 09:36:46;;;;;;;2.97;1.10;;;23.10;51.10;;;;;;7369355;19;20070;-76
2022/07/03 09:39:22;;;;;;;3.20;1.30;;;23.10;51.40;;;;;;7371412;19;20019;-76
2022/07/03 09:42:01;;;;;;;2.95;1.13;;;23.20;51.10;;;;;;7389129;19;20091;-76
2022/07/03 09:44:38;;;;;;;3.05;1.10;;;23.30;50.80;;;;;;7370136;19;20026;-76
2022/07/03 09:47:15;;;;;;;3.55;1.50;;;23.20;50.00;;;;;;7369307;19;20035;-76
2022/07/03 09:49:50;;;;;;;2.70;1.08;;;23.30;49.90;;;;;;7369394;19;20011;-76
2022/07/03 09:52:35;;;;;;;2.55;1.45;;;23.20;50.00;;;;;;7371610;19;20023;-76
2022/07/03 09:55:20;;;;;;;3.17;1.35;;;23.10;50.50;;;;;;7371772;19;20117;-76
2022/07/03 09:58:02;;;;;;;4.82;1.25;;;23.20;50.50;;;;;;7369444;19;20011;-77
2022/07/03 10:00:33;;;;;;;3.78;1.60;;;23.40;50.60;;;;;;7366438;19;20014;-77
2022/07/03 10:03:03;;;;;;;;;;;23.50;50.20;;;;;;7393314;19;20014;-76
2022/07/03 10:05:33;;;;;;;6.63;1.58;;;23.50;50.00;;;;;;7370690;19;19925;-76
2022/07/03 10:08:07;;;;;;;1.67;1.10;;;23.60;50.00;;;;;;7369418;19;20031;-76
2022/07/03 10:10:40;;;;;;;2.75;1.35;;;23.60;49.80;;;;;;7371558;19;20014;-77
2022/07/03 10:13:09;;;;;;;3.40;1.30;;;23.70;49.70;;;;;;7369754;19;20035;-77
2022/07/03 10:15:39;;;;;;;5.75;1.20;;;23.80;49.80;;;;;;7369441;19;20081;-78
2022/07/03 10:18:10;;;;;;;1.75;1.30;;;23.90;49.40;;;;;;7370374;19;20022;-77
2022/07/03 10:20:42;;;;;;;3.17;1.35;;;23.90;49.30;;;;;;7390037;19;20022;-77
2022/07/03 10:23:12;;;;;;;2.00;1.27;;;23.70;49.50;;;;;;7370793;19;20049;-77
2022/07/03 10:25:47;;;;;;;2.20;1.20;;;23.70;49.70;;;;;;7370509;19;20320;-77
2022/07/03 10:28:17;;;;;;;5.60;1.45;;;23.90;49.70;;;;;;7372110;19;20021;-77
2022/07/03 10:30:48;;;;;;;3.97;1.73;;;23.90;49.50;;;;;;7370149;19;20346;-77
2022/07/03 10:33:18;;;;;;;1.92;1.70;;;24.00;49.30;;;;;;7370858;19;20033;-78
2022/07/03 10:35:50;;;;;;;3.00;1.98;;;23.90;49.50;;;;;;7391135;19;20007;-77
2022/07/03 10:38:39;;;;;;;3.10;2.20;;;24.00;49.50;;;;;;7368745;19;20098;-78
2022/07/03 10:46:42;;;;;;;5.22;2.45;;;24.00;49.50;;;;;;7370375;19;20058;-77
2022/07/03 10:49:11;;;;;;;5.93;2.35;;;24.20;49.60;;;;;;7369296;19;20017;-77
2022/07/03 10:51:57;;;;;;;5.43;1.90;;;24.40;48.70;;;;;;7370034;19;20038;-78
2022/07/03 10:54:28;;;;;;;6.03;2.17;;;24.60;48.10;;;;;;7368001;19;20458;-78
2022/07/03 10:57:21;;;;;;;4.22;1.98;;;24.70;48.50;;;;;;7389924;19;20090;-77
2022/07/03 12:41:56;;;;;;;3.83;1.13;;;25.30;42.70;;;;;;7367005;19;20006;-80
2022/07/03 12:44:30;;;;;;;3.22;0.90;;;25.40;43.60;;;;;;7389672;19;20667;-81
2022/07/03 12:47:07;;;;;;;1.00;0.63;;;25.30;44.30;;;;;;7368099;19;20014;-80
2022/07/03 12:49:53;;;;;;;4.60;0.90;;;25.40;43.90;;;;;;7366190;19;20018;-79
2022/07/03 12:52:59;;;;;;;1.67;0.90;;;25.50;44.00;;;;;;7360798;19;20086;-81
2022/07/03 12:55:35;;;;;;;1.30;0.73;;;25.80;43.20;;;;;;7352015;19;20015;-79
2022/07/03 13:01:13;;;;;;;3.67;0.80;;;26.20;42.40;;;;;;7363820;19;20049;-78
2022/07/03 13:03:58;;;;;;;2.47;0.85;;;26.10;41.30;;;;;;7361272;19;20043;-78
2022/07/03 13:06:28;;;;;;;4.72;1.83;;;25.90;41.80;;;;;;7359253;19;20018;-77
2022/07/03 13:09:01;;;;;;;1.92;1.10;;;26.00;42.30;;;;;;7384350;19;20030;-78
2022/07/03 13:11:38;;;;;;;6.75;4.35;;;26.00;42.00;;;;;;7365683;19;20039;-78
2022/07/03 13:14:12;;;;;;;8.88;1.23;;;25.90;41.90;;;;;;7365398;19;20011;-78
2022/07/03 13:16:46;;;;;;;7.00;0.90;;;25.90;41.50;;;;;;7365052;19;20003;-78
2022/07/03 13:19:20;;;;;;;30.88;18.27;;;25.80;41.70;;;;;;7372921;19;20023;-77
2022/07/03 13:21:53;;;;;;;11.15;7.05;;;25.90;41.20;;;;;;7368166;19;20487;-78
2022/07/03 13:24:23;;;;;;;5.30;3.35;;;25.90;41.00;;;;;;7370590;19;20003;-77
2022/07/03 13:26:58;;;;;;;9.20;6.80;;;26.10;41.40;;;;;;7392482;19;20022;-78
2022/07/03 13:29:34;;;;;;;3.38;1.90;;;26.30;40.60;;;;;;7370260;19;20010;-78
2022/07/03 13:32:04;;;;;;;7.28;3.58;;;26.60;41.30;;;;;;7373230;19;20349;-78
2022/07/03 13:34:35;;;;;;;11.68;6.50;;;26.70;39.80;;;;;;7371404;19;20015;-79
2022/07/03 13:37:06;;;;;;;1.85;0.90;;;26.70;40.10;;;;;;7372080;19;20014;-79
2022/07/03 13:39:38;;;;;;;6.20;3.60;;;26.60;40.20;;;;;;7370483;19;20014;-79
2022/07/03 13:42:10;;;;;;;1.55;0.80;;;26.40;40.20;;;;;;7368975;19;20018;-79
2022/07/03 13:44:44;;;;;;;2.70;1.67;;;26.50;39.80;;;;;;7390516;19;20313;-77
2022/07/03 13:47:16;;;;;;;1.73;1.50;;;26.60;39.40;;;;;;7369057;19;20459;-77
2022/07/03 13:49:46;;;;;;;2.60;1.25;;;26.60;39.50;;;;;;7370219;19;20011;-79
2022/07/03 13:52:18;;;;;;;3.03;0.82;;;26.60;39.70;;;;;;7370333;19;20018;-77
2022/07/03 13:54:48;;;;;;;7.85;2.03;;;26.40;39.80;;;;;;7367934;19;20007;-77
2022/07/03 13:57:20;;;;;;;1.77;1.38;;;26.60;40.30;;;;;;7366644;19;20019;-78
2022/07/03 13:59:56;;;;;;;2.25;0.90;;;26.90;39.50;;;;;;7393589;19;20010;-78
2022/07/03 14:02:25;;;;;;;2.88;0.52;;;27.00;38.80;;;;;;7368084;19;20118;-78
2022/07/03 14:04:54;;;;;;;1.45;0.60;;;27.00;39.00;;;;;;7370415;19;20471;-78
2022/07/03 14:07:23;;;;;;;5.50;0.70;;;27.00;39.00;;;;;;7372182;19;20035;-77
2022/07/03 14:09:52;;;;;;;2.83;0.60;;;27.10;39.50;;;;;;7370297;19;20011;-78
2022/07/03 14:12:20;;;;;;;1.65;0.63;;;27.10;39.10;;;;;;7372202;19;20011;-78
2022/07/03 14:14:52;;;;;;;1.30;0.80;;;27.30;39.10;;;;;;7390204;19;20450;-78
2022/07/03 14:17:20;;;;;;;1.23;0.75;;;27.40;39.20;;;;;;7369876;19;20094;-78
2022/07/03 14:19:51;;;;;;;2.58;0.70;;;27.40;37.80;;;;;;7371228;19;20330;-78
2022/07/03 14:22:19;;;;;;;3.30;0.70;;;27.40;37.30;;;;;;7370491;19;20010;-77
2022/07/03 14:24:48;;;;;;;1.52;0.68;;;27.50;37.70;;;;;;7371927;19;20035;-78
2022/07/03 14:32:52;;;;;;;0.52;0.50;;;27.30;37.90;;;;;;7391141;19;20014;-77
2022/07/03 14:35:21;;;;;;;2.35;0.60;;;27.30;38.40;;;;;;7367469;19;20007;-77
2022/07/03 14:37:50;;;;;;;2.47;0.50;;;27.30;37.90;;;;;;7367187;19;20011;-77
2022/07/03 14:40:19;;;;;;;3.35;0.65;;;27.20;38.00;;;;;;7369282;19;20007;-78
2022/07/03 14:42:47;;;;;;;0.68;0.52;;;27.20;38.50;;;;;;7368834;19;20070;-78
2022/07/03 14:45:19;;;;;;;2.10;0.73;;;27.10;38.80;;;;;;7368379;19;20114;-78
2022/07/03 14:47:48;;;;;;;6.05;0.95;;;27.10;38.70;;;;;;7388619;19;20029;-78
2022/07/03 14:50:17;;;;;;;3.22;0.50;;;27.10;38.80;;;;;;7368411;19;20409;-78
2022/07/03 14:52:46;;;;;;;4.57;0.80;;;27.00;37.90;;;;;;7366950;19;20011;-77
2022/07/03 14:55:14;;;;;;;0.80;0.50;;;27.00;38.20;;;;;;7368541;19;20115;-78
2022/07/03 14:57:54;;;;;;;1.98;0.73;;;27.00;37.80;;;;;;7368385;19;20015;-78
2022/07/03 15:00:30;;;;;;;2.78;0.60;;;27.20;38.00;;;;;;7365403;19;20050;-77
2022/07/03 15:03:08;;;;;;;2.97;0.70;;;27.20;37.30;;;;;;7389999;19;20458;-77
2022/07/03 15:05:42;;;;;;;1.85;0.50;;;27.10;37.80;;;;;;7366636;19;20582;-77
2022/07/03 15:08:24;;;;;;;4.22;0.82;;;27.20;37.20;;;;;;7369111;19;20010;-77
2022/07/03 15:10:55;;;;;;;0.93;0.85;;;27.20;38.20;;;;;;7368370;19;20039;-77
2022/07/03 15:13:23;;;;;;;;;;;27.30;37.30;;;;;;7369872;19;20030;-77
2022/07/03 15:15:55;;;;;;;2.25;0.70;;;27.50;37.20;;;;;;7368719;19;20273;-77